createdAt,value
2018-12-27T00:03:01.650Z,1309
2018-12-27T00:06:23.926Z,1330
2018-12-27T00:09:46.066Z,1360
2018-12-27T00:13:08.198Z,1397
2018-12-27T00:16:30.351Z,1384
2018-12-27T00:19:52.598Z,1426
2018-12-27T00:23:14.699Z,1444
2018-12-27T00:26:36.891Z,1467
2018-12-27T00:29:59.229Z,1482
2018-12-27T00:33:21.326Z,1518
2018-12-27T00:36:43.485Z,1516
2018-12-27T00:40:05.797Z,1552
2018-12-27T00:43:27.757Z,1593
2018-12-27T00:46:50.015Z,1617
2018-12-27T00:50:12.113Z,1620
2018-12-27T00:53:34.286Z,1638
2018-12-27T00:56:56.461Z,1648
2018-12-27T01:00:18.698Z,1656
2018-12-27T01:03:40.849Z,1668
2018-12-27T01:07:02.979Z,1148
2018-12-27T01:10:25.165Z,1087
2018-12-27T01:13:47.449Z,1113
2018-12-27T01:17:09.494Z,1104
2018-12-27T01:20:31.742Z,1139
2018-12-27T01:23:56.683Z,1177
2018-12-27T01:27:16.035Z,1234
2018-12-27T01:30:38.270Z,1243
2018-12-27T01:34:00.438Z,1270
2018-12-27T01:37:22.566Z,1290
2018-12-27T01:40:44.800Z,1319
2018-12-27T01:44:07.008Z,1361
2018-12-27T01:47:29.221Z,1391
2018-12-27T01:50:51.263Z,1400
2018-12-27T01:54:13.473Z,1424
2018-12-27T01:57:35.686Z,1434
2018-12-27T02:00:57.792Z,1454
2018-12-27T02:04:20.007Z,1480
2018-12-27T02:07:42.201Z,1496
2018-12-27T02:11:04.362Z,1519
2018-12-27T02:14:26.551Z,1524
2018-12-27T02:17:48.650Z,1535
2018-12-27T02:21:10.908Z,1549
2018-12-27T02:24:33.053Z,1563
2018-12-27T02:27:55.181Z,1574
2018-12-27T02:31:17.359Z,1588
2018-12-27T02:34:39.535Z,1591
2018-12-27T02:38:01.699Z,1598
2018-12-27T02:41:23.876Z,1625
2018-12-27T02:44:46.052Z,1643
2018-12-27T02:48:08.231Z,1655
2018-12-27T02:51:30.425Z,1665
2018-12-27T02:54:52.668Z,1668
2018-12-27T02:58:14.802Z,1675
2018-12-27T03:01:37.019Z,1684
2018-12-27T03:04:59.189Z,1705
2018-12-27T03:08:21.380Z,1704
2018-12-27T03:11:43.435Z,1712
2018-12-27T03:15:05.628Z,1719
2018-12-27T03:18:27.800Z,1749
2018-12-27T03:21:49.961Z,1729
2018-12-27T03:25:12.168Z,1754
2018-12-27T03:28:34.330Z,1754
2018-12-27T03:31:56.523Z,1765
2018-12-27T03:35:19.821Z,1762
2018-12-27T03:38:40.953Z,1777
2018-12-27T03:42:03.041Z,1780
2018-12-27T03:45:25.207Z,1779
2018-12-27T03:48:47.499Z,1793
2018-12-27T03:52:09.559Z,1800
2018-12-27T03:55:31.820Z,1812
2018-12-27T03:58:53.896Z,1830
2018-12-27T04:02:16.159Z,1842
2018-12-27T04:05:38.259Z,1817
2018-12-27T04:09:00.462Z,1849
2018-12-27T04:12:22.621Z,1848
2018-12-27T04:15:44.795Z,1856
2018-12-27T04:19:07.062Z,1867
2018-12-27T04:22:29.135Z,1885
2018-12-27T04:25:51.324Z,1898
2018-12-27T04:29:13.568Z,1898
2018-12-27T04:32:35.748Z,1897
2018-12-27T04:35:57.846Z,1886
2018-12-27T04:39:20.029Z,1899
2018-12-27T04:42:42.285Z,1891
2018-12-27T04:46:04.441Z,1899
2018-12-27T04:49:26.606Z,1899
2018-12-27T04:52:48.871Z,1889
2018-12-27T04:56:11.080Z,1904
2018-12-27T04:59:33.098Z,1914
2018-12-27T05:02:55.250Z,1915
2018-12-27T05:06:17.474Z,1906
2018-12-27T05:09:39.602Z,1920
2018-12-27T05:13:01.770Z,1913
2018-12-27T05:16:23.947Z,1924
2018-12-27T05:19:46.251Z,1931
2018-12-27T05:23:08.359Z,1934
2018-12-27T05:26:30.567Z,1926
2018-12-27T05:29:52.713Z,1945
2018-12-27T05:33:14.912Z,1958
2018-12-27T05:36:36.979Z,1959
2018-12-27T05:39:59.231Z,2010
2018-12-27T05:43:21.438Z,1280
2018-12-27T05:46:43.536Z,1116
2018-12-27T05:50:05.782Z,1063
2018-12-27T05:53:27.920Z,1014
2018-12-27T05:56:50.137Z,965
2018-12-27T06:00:12.203Z,926
2018-12-27T06:03:34.392Z,903
2018-12-27T06:06:56.576Z,870
2018-12-27T06:10:18.738Z,867
2018-12-27T06:13:40.971Z,872
2018-12-27T06:17:03.145Z,870
2018-12-27T06:20:25.295Z,888
2018-12-27T06:23:47.486Z,879
2018-12-27T06:27:09.607Z,887
2018-12-27T06:30:32.461Z,908
2018-12-27T06:33:54.035Z,904
2018-12-27T06:37:16.222Z,917
2018-12-27T06:40:38.299Z,896
2018-12-27T06:44:00.564Z,891
2018-12-27T06:47:22.689Z,854
2018-12-27T06:50:44.824Z,857
2018-12-27T06:54:06.995Z,849
2018-12-27T06:57:29.160Z,844
2018-12-27T07:00:52.637Z,833
2018-12-27T07:04:13.527Z,834
2018-12-27T07:07:35.692Z,826
2018-12-27T07:10:57.854Z,816
2018-12-27T07:14:20.023Z,824
2018-12-27T07:17:42.287Z,823
2018-12-27T07:21:04.383Z,817
2018-12-27T07:24:26.539Z,816
2018-12-27T07:27:48.791Z,814
2018-12-27T07:31:10.963Z,807
2018-12-27T07:34:33.152Z,805
2018-12-27T07:37:55.251Z,813
2018-12-27T07:41:17.444Z,798
2018-12-27T07:44:40.843Z,805
2018-12-27T07:48:01.842Z,709
2018-12-27T07:51:23.940Z,569
2018-12-27T07:54:46.090Z,516
2018-12-27T08:01:30.489Z,519
2018-12-27T08:04:52.722Z,607
2018-12-27T08:08:14.812Z,643
2018-12-27T08:11:36.976Z,659
2018-12-27T08:14:59.223Z,682
2018-12-27T08:18:21.328Z,724
2018-12-27T08:21:43.606Z,730
2018-12-27T08:25:05.755Z,743
2018-12-27T08:28:27.849Z,741
2018-12-27T08:31:50.095Z,751
2018-12-27T08:35:12.224Z,761
2018-12-27T08:38:34.377Z,762
2018-12-27T08:41:56.538Z,770
2018-12-27T08:45:18.710Z,800
2018-12-27T08:48:40.938Z,788
2018-12-27T08:52:03.095Z,794
2018-12-27T08:55:25.335Z,803
2018-12-27T08:58:47.511Z,820
2018-12-27T09:02:09.666Z,809
2018-12-27T09:05:31.828Z,793
2018-12-27T09:08:56.479Z,839
2018-12-27T09:12:16.142Z,834
2018-12-27T09:15:38.290Z,820
2018-12-27T09:19:00.470Z,817
2018-12-27T09:22:22.621Z,867
2018-12-27T09:25:48.804Z,870
2018-12-27T09:29:06.977Z,877
2018-12-27T09:32:29.229Z,886
2018-12-27T09:35:51.332Z,870
2018-12-27T09:42:35.742Z,867
2018-12-27T09:45:57.933Z,860
2018-12-27T09:49:20.027Z,857
2018-12-27T09:52:42.194Z,758
2018-12-27T09:56:04.353Z,701
2018-12-27T09:59:26.545Z,707
2018-12-27T10:02:48.778Z,616
2018-12-27T10:06:10.897Z,615
2018-12-27T10:09:33.059Z,604
2018-12-27T10:12:55.231Z,591
2018-12-27T10:16:17.443Z,576
2018-12-27T10:19:39.659Z,563
2018-12-27T10:23:01.747Z,562
2018-12-27T10:26:24.016Z,555
2018-12-27T10:29:46.199Z,545
2018-12-27T10:33:08.277Z,548
2018-12-27T10:36:30.458Z,545
2018-12-27T10:39:52.699Z,546
2018-12-27T10:43:14.869Z,541
2018-12-27T10:46:37.054Z,560
2018-12-27T10:49:59.221Z,620
2018-12-27T10:53:21.386Z,614
2018-12-27T10:56:43.490Z,629
2018-12-27T11:00:05.670Z,618
2018-12-27T11:06:50.025Z,657
2018-12-27T11:10:12.179Z,635
2018-12-27T11:13:34.334Z,636
2018-12-27T11:16:56.545Z,635
2018-12-27T11:20:18.783Z,626
2018-12-27T11:23:40.879Z,621
2018-12-27T11:27:03.037Z,592
2018-12-27T11:30:25.206Z,586
2018-12-27T11:33:47.412Z,570
2018-12-27T11:37:09.574Z,573
2018-12-27T11:40:31.728Z,577
2018-12-27T11:43:53.891Z,577
2018-12-27T11:47:16.165Z,574
2018-12-27T11:50:41.480Z,580
2018-12-27T11:54:00.609Z,587
2018-12-27T11:57:22.583Z,600
2018-12-27T12:00:44.867Z,595
2018-12-27T12:04:06.934Z,602
2018-12-27T12:07:29.128Z,605
2018-12-27T12:14:13.558Z,622
2018-12-27T12:17:35.720Z,632
2018-12-27T12:24:19.977Z,622
2018-12-27T12:27:42.242Z,632
2018-12-27T12:34:26.583Z,637
2018-12-27T12:37:48.739Z,642
2018-12-27T12:44:33.855Z,647
2018-12-27T12:47:55.186Z,645
2018-12-27T12:54:39.640Z,659
2018-12-27T12:58:01.724Z,671
2018-12-27T13:01:23.907Z,666
2018-12-27T13:04:46.625Z,681
2018-12-27T13:08:08.230Z,684
2018-12-27T13:11:30.407Z,692
2018-12-27T13:14:52.641Z,694
2018-12-27T13:18:14.850Z,695
2018-12-27T13:21:37.010Z,733
2018-12-27T13:24:59.189Z,801
2018-12-27T13:28:21.268Z,759
2018-12-27T13:31:43.436Z,762
2018-12-27T13:35:05.615Z,759
2018-12-27T13:38:27.849Z,745
2018-12-27T13:45:12.204Z,761
2018-12-27T13:48:34.326Z,757
2018-12-27T13:51:56.801Z,758
2018-12-27T13:55:18.732Z,767
2018-12-27T13:58:40.903Z,767
2018-12-27T14:02:03.112Z,772
2018-12-27T14:05:25.227Z,773
2018-12-27T14:08:47.416Z,751
2018-12-27T14:12:09.531Z,737
2018-12-27T14:15:31.732Z,734
2018-12-27T14:18:53.879Z,719
2018-12-27T14:22:16.138Z,716
2018-12-27T14:25:38.233Z,703
2018-12-27T14:29:00.416Z,698
2018-12-27T14:32:22.570Z,691
2018-12-27T14:35:44.996Z,681
2018-12-27T14:39:06.933Z,669
2018-12-27T14:42:29.159Z,668
2018-12-27T14:45:51.396Z,649
2018-12-27T14:49:13.431Z,646
2018-12-27T14:52:35.611Z,646
2018-12-27T14:55:57.785Z,634
2018-12-27T14:59:20.026Z,630
2018-12-27T15:04:15.115Z,684
2018-12-27T15:07:37.375Z,664
2018-12-27T15:10:59.469Z,640
2018-12-27T15:14:21.816Z,632
2018-12-27T15:17:43.918Z,629
2018-12-27T15:24:28.154Z,619
2018-12-27T15:27:50.327Z,625
2018-12-27T15:34:34.671Z,604
2018-12-27T15:37:56.960Z,611
2018-12-27T15:41:19.146Z,596
2018-12-27T15:44:41.290Z,598
2018-12-27T15:48:03.477Z,601
2018-12-27T15:51:25.617Z,592
2018-12-27T15:54:47.753Z,592
2018-12-27T15:58:09.989Z,588
2018-12-27T16:04:56.356Z,590
2018-12-27T16:08:16.518Z,593
2018-12-27T16:11:38.694Z,577
2018-12-27T16:15:00.794Z,585
2018-12-27T16:18:22.974Z,585
2018-12-27T16:21:45.176Z,579
2018-12-27T16:25:07.415Z,581
2018-12-27T16:28:29.506Z,575
2018-12-27T16:31:51.681Z,572
2018-12-27T16:35:13.883Z,572
2018-12-27T16:38:36.098Z,561
2018-12-27T16:41:58.205Z,558
2018-12-27T16:45:20.468Z,561
2018-12-27T16:48:42.585Z,559
2018-12-27T16:52:04.810Z,553
2018-12-27T16:55:26.907Z,557
2018-12-27T16:58:49.115Z,540
2018-12-27T17:02:11.270Z,540
2018-12-27T17:05:33.424Z,534
2018-12-27T17:08:55.663Z,536
2018-12-27T17:12:17.791Z,532
2018-12-27T17:15:39.962Z,545
2018-12-27T17:19:02.156Z,542
2018-12-27T17:22:24.306Z,528
2018-12-27T17:25:46.586Z,531
2018-12-27T17:29:08.735Z,538
2018-12-27T17:32:30.912Z,532
2018-12-27T17:35:53.015Z,524
2018-12-27T17:39:15.263Z,527
2018-12-27T17:42:37.370Z,533
2018-12-27T17:45:59.673Z,528
2018-12-27T17:49:21.742Z,524
2018-12-27T17:52:43.925Z,541
2018-12-27T17:56:06.163Z,521
2018-12-27T17:59:28.254Z,516
2018-12-27T18:02:50.490Z,511
2018-12-27T18:06:12.661Z,509
2018-12-27T18:09:34.884Z,507
2018-12-27T18:12:57.081Z,510
2018-12-27T18:16:19.132Z,509
2018-12-27T18:19:41.393Z,503
2018-12-27T18:23:03.586Z,515
2018-12-27T18:26:25.667Z,509
2018-12-27T18:29:47.910Z,509
2018-12-27T18:33:10.090Z,509
2018-12-27T18:36:32.182Z,503
2018-12-27T18:39:54.386Z,495
2018-12-27T18:43:16.614Z,502
2018-12-27T18:46:38.729Z,502
2018-12-27T18:50:00.898Z,497
2018-12-27T18:53:23.155Z,489
2018-12-27T18:56:45.238Z,487
2018-12-27T19:03:29.590Z,489
2018-12-27T19:06:51.776Z,486
2018-12-27T19:10:13.947Z,482
2018-12-27T19:13:36.202Z,485
2018-12-27T19:16:58.371Z,487
2018-12-27T19:20:20.492Z,481
2018-12-27T19:23:42.708Z,484
2018-12-27T19:27:04.875Z,488
2018-12-27T19:30:27.056Z,481
2018-12-27T19:33:49.153Z,529
2018-12-27T19:40:33.577Z,566
2018-12-27T19:43:55.736Z,528
2018-12-27T19:47:17.979Z,522
2018-12-27T19:50:40.105Z,519
2018-12-27T19:54:02.250Z,525
2018-12-27T19:57:24.396Z,533
2018-12-27T20:00:46.618Z,545
2018-12-27T20:04:08.818Z,555
2018-12-27T20:07:30.992Z,550
2018-12-27T20:10:53.229Z,553
2018-12-27T20:14:15.361Z,561
2018-12-27T20:17:37.450Z,559
2018-12-27T20:20:59.691Z,565
2018-12-27T20:24:21.797Z,568
2018-12-27T20:27:43.966Z,572
2018-12-27T20:31:06.257Z,581
2018-12-27T20:34:28.323Z,576
2018-12-27T20:37:50.587Z,577
2018-12-27T20:41:12.727Z,584
2018-12-27T20:47:57.014Z,589
2018-12-27T20:51:19.204Z,593
2018-12-27T20:54:41.438Z,598
2018-12-27T20:58:03.605Z,603
2018-12-27T21:01:25.718Z,609
2018-12-27T21:04:47.896Z,614
2018-12-27T21:08:10.167Z,614
2018-12-27T21:11:32.348Z,616
2018-12-27T21:14:54.417Z,618
2018-12-27T21:18:16.631Z,617
2018-12-27T21:21:38.869Z,629
2018-12-27T21:25:01.023Z,631
2018-12-27T21:28:23.140Z,628
2018-12-27T21:31:45.307Z,637
2018-12-27T21:35:07.468Z,637
2018-12-27T21:38:29.649Z,638
2018-12-27T21:41:51.940Z,644
2018-12-27T21:45:14.067Z,636
2018-12-27T21:48:36.257Z,643
2018-12-27T21:51:58.349Z,648
2018-12-27T21:55:20.588Z,662
2018-12-27T21:58:42.773Z,671
2018-12-27T22:02:04.936Z,662
2018-12-27T22:05:27.057Z,573
2018-12-27T22:08:49.296Z,538
2018-12-27T22:12:11.479Z,522
2018-12-27T22:18:55.823Z,580
2018-12-27T22:22:17.932Z,642
2018-12-27T22:25:40.270Z,658
2018-12-27T22:32:24.556Z,677
2018-12-27T22:42:31.041Z,718
2018-12-27T22:52:37.494Z,747
2018-12-27T22:59:21.870Z,736
2018-12-27T23:02:44.029Z,755
2018-12-27T23:12:50.656Z,752
2018-12-27T23:16:12.734Z,767
2018-12-27T23:19:34.926Z,771
2018-12-27T23:22:57.190Z,836
2018-12-27T23:26:19.322Z,782
2018-12-27T23:36:25.768Z,847
2018-12-27T23:39:47.956Z,811
2018-12-27T23:43:10.127Z,807
2018-12-27T23:46:32.481Z,806
2018-12-27T23:49:54.538Z,809
2018-12-27T23:53:16.663Z,847
2018-12-27T23:56:38.813Z,858
